Time;durP1;ratioP1;P1;durP2;ratioP2;P2;SDS_P1;SDS_P2;PMS_P1;PMS_P2;Temp;Humidity;BMP_temperature;BMP_pressure;BME280_temperature;BME280_humidity;BME280_pressure;Samples;Min_cycle;Max_cycle;Signal;HPM_P1;HPM_P2
2022/07/09 00:02:08;;;;;;;15.82;10.35;;;17.40;99.90;;;;;;5008998;28;37579;-80
2022/07/09 00:04:34;;;;;;;16.25;10.52;;;17.50;99.90;;;;;;5011906;28;39432;-80
2022/07/09 00:07:00;;;;;;;14.20;11.23;;;17.40;99.90;;;;;;4995988;28;38391;-81
2022/07/09 00:09:26;;;;;;;17.25;12.43;;;17.40;99.90;;;;;;4993002;28;46707;-80
2022/07/09 00:11:53;;;;;;;17.95;13.30;;;17.30;99.90;;;;;;4995058;28;36130;-81
2022/07/09 00:14:20;;;;;;;17.23;12.70;;;17.40;99.90;;;;;;5006305;28;40465;-80
2022/07/09 00:16:46;;;;;;;20.27;14.77;;;17.40;99.90;;;;;;5002165;28;38836;-80
2022/07/09 00:19:12;;;;;;;18.33;13.80;;;17.40;99.90;;;;;;4983848;28;39574;-81
2022/07/09 00:21:38;;;;;;;17.63;14.38;;;17.30;99.90;;;;;;4982369;28;37501;-81
2022/07/09 00:24:11;;;;;;;17.88;13.90;;;17.30;99.90;;;;;;4983570;28;37710;-78
2022/07/09 00:26:37;;;;;;;;;;;17.30;99.90;;;;;;4998419;28;38511;-78
2022/07/09 00:29:03;;;;;;;19.65;15.18;;;17.30;99.90;;;;;;4982123;28;37273;-78
2022/07/09 00:31:29;;;;;;;19.98;13.85;;;17.30;99.90;;;;;;4982500;28;37688;-78
2022/07/09 00:33:55;;;;;;;18.98;14.30;;;17.30;99.90;;;;;;4985400;28;37572;-79
2022/07/09 00:36:21;;;;;;;17.52;14.93;;;17.30;99.90;;;;;;4997248;28;39776;-79
2022/07/09 00:38:47;;;;;;;19.48;15.75;;;17.30;99.90;;;;;;5008548;28;38545;-79
2022/07/09 00:41:13;;;;;;;21.33;14.88;;;17.30;99.90;;;;;;4999352;28;38891;-79
2022/07/09 00:43:49;;;;;;;19.60;14.32;;;17.40;99.90;;;;;;5010399;28;39150;-79
2022/07/09 00:46:16;;;;;;;16.02;14.10;;;17.30;99.90;;;;;;4989383;28;37703;-79
2022/07/09 00:48:42;;;;;;;16.38;13.27;;;17.30;99.90;;;;;;5006594;28;38533;-79
2022/07/09 00:51:11;;;;;;;20.90;14.77;;;17.40;99.90;;;;;;5006922;28;38036;-80
2022/07/09 00:53:37;;;;;;;15.90;13.75;;;17.30;99.90;;;;;;5010707;28;39353;-80
2022/07/09 00:56:04;;;;;;;16.73;12.13;;;17.30;99.90;;;;;;5009699;28;38598;-78
2022/07/09 00:58:31;;;;;;;19.70;14.50;;;17.30;99.90;;;;;;5010924;28;39311;-79
2022/07/09 01:00:58;;;;;;;15.98;11.20;;;17.30;99.90;;;;;;5006873;28;37819;-80
2022/07/09 01:03:24;;;;;;;12.13;10.85;;;17.30;99.90;;;;;;5012879;28;40180;-80
2022/07/09 01:05:53;;;;;;;12.82;11.02;;;17.30;99.90;;;;;;4987188;28;38253;-79
2022/07/09 01:08:19;;;;;;;15.13;11.02;;;17.20;99.90;;;;;;4994928;28;38984;-79
2022/07/09 01:10:45;;;;;;;14.70;10.38;;;17.20;99.90;;;;;;4985643;28;37945;-79
2022/07/09 01:13:12;;;;;;;11.48;10.15;;;17.20;99.90;;;;;;4981100;28;39190;-79
2022/07/09 01:15:38;;;;;;;11.75;8.98;;;17.20;99.90;;;;;;4984402;28;39020;-80
2022/07/09 01:18:04;;;;;;;14.65;10.23;;;17.20;99.90;;;;;;5002958;28;38511;-80
2022/07/09 01:20:31;;;;;;;11.68;8.98;;;17.10;99.90;;;;;;5002672;28;37953;-80
2022/07/09 01:22:59;;;;;;;11.10;8.95;;;17.10;99.90;;;;;;4984651;28;37807;-79
2022/07/09 01:25:33;;;;;;;11.93;8.70;;;17.10;99.90;;;;;;4972431;28;39057;-80
2022/07/09 01:28:00;;;;;;;10.15;8.73;;;17.10;99.90;;;;;;4990957;28;37986;-79
2022/07/09 01:30:27;;;;;;;13.10;8.50;;;17.10;99.90;;;;;;4982761;28;35794;-80
2022/07/09 01:32:54;;;;;;;11.38;8.80;;;17.10;99.90;;;;;;4983159;28;39956;-80
2022/07/09 01:35:21;;;;;;;12.60;8.35;;;17.10;99.90;;;;;;4979899;28;39130;-80
2022/07/09 01:37:47;;;;;;;11.32;7.55;;;17.00;99.90;;;;;;4994127;28;38510;-79
2022/07/09 01:40:13;;;;;;;9.45;8.15;;;17.10;99.90;;;;;;4982866;28;37858;-79
2022/07/09 01:42:43;;;;;;;10.88;7.68;;;17.10;99.90;;;;;;5011983;28;39410;-80
2022/07/09 01:45:10;;;;;;;9.45;7.80;;;17.10;99.90;;;;;;4994977;28;38700;-80
2022/07/09 01:47:36;;;;;;;11.32;7.70;;;17.10;99.90;;;;;;5001323;28;38414;-80
2022/07/09 01:50:03;;;;;;;8.73;7.30;;;17.10;99.90;;;;;;5001675;28;37561;-80
2022/07/09 01:52:30;;;;;;;9.52;7.25;;;17.10;99.90;;;;;;4999811;28;38534;-80
2022/07/09 01:54:57;;;;;;;9.77;6.78;;;17.20;99.90;;;;;;4999817;28;39581;-80
2022/07/09 01:57:26;;;;;;;8.05;7.25;;;17.20;99.90;;;;;;4982753;28;37156;-80
2022/07/09 01:59:52;;;;;;;8.23;7.18;;;17.30;99.90;;;;;;4981823;28;37644;-80
2022/07/09 02:02:19;;;;;;;8.75;7.70;;;17.30;99.90;;;;;;4984330;28;39392;-79
2022/07/09 02:04:46;;;;;;;13.18;9.65;;;17.40;99.90;;;;;;4978313;28;39335;-80
2022/07/09 02:07:14;;;;;;;10.63;8.55;;;17.40;99.90;;;;;;4985885;28;37091;-80
2022/07/09 02:09:40;;;;;;;17.90;9.30;;;17.40;99.90;;;;;;4995352;28;38267;-79
2022/07/09 02:12:07;;;;;;;10.13;7.97;;;17.40;99.90;;;;;;4989414;28;39744;-78
2022/07/09 02:14:34;;;;;;;11.70;8.27;;;17.50;99.90;;;;;;4999884;28;38314;-80
2022/07/09 02:17:00;;;;;;;10.48;7.95;;;17.50;99.90;;;;;;5015748;28;37658;-79
2022/07/09 02:19:35;;;;;;;9.93;7.75;;;17.50;99.90;;;;;;4999580;28;48513;-80
2022/07/09 02:22:02;;;;;;;13.20;8.13;;;17.50;99.90;;;;;;4981936;28;39857;-79
2022/07/09 02:24:28;;;;;;;11.27;7.53;;;17.50;99.90;;;;;;5000777;28;38627;-79
2022/07/09 02:26:55;;;;;;;9.57;7.07;;;17.40;99.90;;;;;;4999268;28;38507;-79
2022/07/09 02:29:21;;;;;;;8.00;5.68;;;17.40;99.90;;;;;;4993946;28;38061;-79
2022/07/09 02:31:47;;;;;;;6.70;6.00;;;17.40;99.90;;;;;;4995156;28;38914;-79
2022/07/09 02:34:13;;;;;;;8.35;5.65;;;17.40;99.90;;;;;;5003804;28;39576;-79
2022/07/09 02:36:43;;;;;;;9.60;6.10;;;17.40;99.90;;;;;;4988362;28;37769;-79
2022/07/09 02:39:09;;;;;;;10.63;7.00;;;17.40;99.90;;;;;;4981926;28;36057;-79
2022/07/09 02:41:35;;;;;;;9.18;6.22;;;17.40;99.90;;;;;;4982774;28;37362;-79
2022/07/09 02:44:01;;;;;;;11.93;7.10;;;17.30;99.90;;;;;;4979896;28;38578;-79
2022/07/09 02:46:27;;;;;;;10.90;7.50;;;17.40;99.90;;;;;;5000451;28;38071;-79
2022/07/09 02:48:54;;;;;;;13.25;8.68;;;17.40;99.90;;;;;;4998604;28;37557;-79
2022/07/09 02:51:20;;;;;;;11.20;7.45;;;17.40;99.90;;;;;;4980388;28;39655;-79
2022/07/09 02:53:46;;;;;;;9.73;8.30;;;17.50;99.90;;;;;;4989133;28;39241;-79
2022/07/09 02:56:12;;;;;;;10.70;7.25;;;17.50;99.90;;;;;;4980353;28;39916;-79
2022/07/09 02:58:38;;;;;;;11.95;8.98;;;17.50;99.90;;;;;;4973288;28;35560;-80
2022/07/09 03:01:05;;;;;;;14.20;8.32;;;17.60;99.90;;;;;;4979688;28;37883;-79
2022/07/09 03:03:37;;;;;;;11.43;9.48;;;17.60;99.90;;;;;;4980746;28;38765;-80
2022/07/09 03:06:05;;;;;;;10.75;7.43;;;17.60;99.90;;;;;;4978035;28;37973;-81
2022/07/09 03:08:31;;;;;;;14.80;9.35;;;17.70;99.90;;;;;;4989379;28;37096;-79
2022/07/09 03:10:57;;;;;;;12.68;9.38;;;17.70;99.90;;;;;;4981987;28;38139;-79
2022/07/09 03:13:23;;;;;;;10.88;7.63;;;17.80;99.90;;;;;;4979703;28;38609;-78
2022/07/09 03:15:50;;;;;;;9.52;6.65;;;17.80;99.90;;;;;;5003546;28;39178;-80
2022/07/09 03:18:16;;;;;;;9.38;7.60;;;17.80;99.90;;;;;;4984151;28;37749;-79
2022/07/09 03:20:42;;;;;;;12.57;8.00;;;17.80;99.90;;;;;;5002797;28;38632;-79
2022/07/09 03:23:08;;;;;;;10.32;7.05;;;17.90;99.90;;;;;;5001360;28;38801;-78
2022/07/09 03:25:34;;;;;;;6.70;6.00;;;17.90;99.90;;;;;;4985779;28;36680;-80
2022/07/09 03:28:00;;;;;;;8.60;6.15;;;17.90;99.90;;;;;;4971603;28;35593;-78
2022/07/09 03:30:26;;;;;;;7.93;6.10;;;17.90;99.90;;;;;;4968182;28;39964;-79
2022/07/09 03:32:53;;;;;;;14.10;7.95;;;18.00;99.90;;;;;;4984035;28;38312;-79
2022/07/09 03:35:19;;;;;;;10.20;7.03;;;18.00;99.90;;;;;;4985736;28;38434;-79
2022/07/09 03:37:45;;;;;;;10.80;8.10;;;18.00;99.90;;;;;;4984716;28;37858;-80
2022/07/09 03:40:11;;;;;;;15.02;9.95;;;18.00;99.90;;;;;;4980176;28;39602;-79
2022/07/09 03:42:37;;;;;;;9.18;7.13;;;18.00;99.90;;;;;;4983853;28;38654;-80
2022/07/09 03:45:04;;;;;;;9.48;8.27;;;18.00;99.90;;;;;;4981733;28;37777;-80
2022/07/09 03:47:30;;;;;;;20.08;12.75;;;18.00;99.90;;;;;;5001810;28;47885;-80
2022/07/09 03:49:56;;;;;;;12.18;9.63;;;18.00;99.90;;;;;;4998681;28;38614;-80
2022/07/09 03:52:22;;;;;;;12.73;11.20;;;18.00;99.90;;;;;;4999542;28;38429;-80
2022/07/09 03:54:49;;;;;;;17.58;12.77;;;18.00;99.90;;;;;;4983229;28;38187;-80
2022/07/09 03:57:15;;;;;;;15.35;12.50;;;18.10;99.90;;;;;;4981900;28;37983;-79
2022/07/09 03:59:41;;;;;;;15.13;12.00;;;18.00;99.90;;;;;;4980595;28;39926;-79
2022/07/09 04:02:07;;;;;;;15.40;12.45;;;18.00;99.90;;;;;;4974689;28;38787;-79
2022/07/09 04:04:33;;;;;;;14.73;13.02;;;18.00;99.90;;;;;;5000495;28;39345;-79
2022/07/09 04:06:59;;;;;;;16.52;14.00;;;18.00;99.90;;;;;;4983964;28;38558;-80
2022/07/09 04:09:26;;;;;;;23.80;17.75;;;18.00;99.90;;;;;;4996944;28;40235;-80
2022/07/09 04:11:52;;;;;;;18.67;16.45;;;18.00;99.90;;;;;;5005211;28;38550;-80
2022/07/09 04:14:19;;;;;;;21.20;16.65;;;17.90;99.90;;;;;;4993029;28;36998;-79
2022/07/09 04:16:46;;;;;;;21.02;17.38;;;17.90;99.90;;;;;;4991570;28;36848;-79
2022/07/09 04:19:13;;;;;;;20.48;17.25;;;17.90;99.90;;;;;;4980379;28;40045;-79
2022/07/09 04:21:39;;;;;;;25.50;18.35;;;17.90;99.90;;;;;;4996621;28;38769;-79
2022/07/09 04:24:05;;;;;;;25.65;20.35;;;17.90;99.90;;;;;;4995164;28;37930;-79
2022/07/09 04:26:31;;;;;;;22.92;18.55;;;17.90;99.90;;;;;;4978253;28;36364;-79
2022/07/09 04:28:57;;;;;;;25.38;20.17;;;18.00;99.90;;;;;;4959440;28;37231;-79
2022/07/09 04:31:23;;;;;;;23.50;17.52;;;18.00;99.90;;;;;;4960108;28;37511;-79
2022/07/09 04:33:50;;;;;;;23.80;19.17;;;18.00;99.90;;;;;;4979657;28;38912;-81
2022/07/09 04:36:16;;;;;;;24.92;20.27;;;18.00;99.90;;;;;;4971579;28;38164;-79
2022/07/09 04:38:42;;;;;;;29.35;23.70;;;18.00;99.90;;;;;;4963017;28;39934;-79
2022/07/09 04:41:08;;;;;;;27.63;21.27;;;18.00;99.90;;;;;;4961717;28;39511;-79
2022/07/09 04:43:34;;;;;;;25.83;21.88;;;18.00;99.90;;;;;;4979107;28;37995;-79
2022/07/09 04:46:01;;;;;;;29.55;22.05;;;18.00;99.90;;;;;;4980516;28;37730;-80
2022/07/09 04:48:27;;;;;;;31.50;22.98;;;18.00;99.90;;;;;;4978561;28;49058;-78
2022/07/09 04:50:55;;;;;;;25.77;20.85;;;18.10;99.90;;;;;;4981534;28;20071;-78
2022/07/09 04:53:22;;;;;;;28.52;22.08;;;18.10;99.90;;;;;;4980074;28;38710;-79
2022/07/09 04:55:48;;;;;;;25.30;20.17;;;18.20;99.90;;;;;;4975369;28;36289;-79
2022/07/09 04:58:14;;;;;;;24.52;17.70;;;18.20;99.90;;;;;;4978879;28;39531;-79
2022/07/09 05:00:40;;;;;;;26.30;19.92;;;18.30;99.90;;;;;;4981385;28;39281;-79
2022/07/09 05:03:07;;;;;;;23.42;16.98;;;18.40;99.90;;;;;;4980167;28;38332;-79
2022/07/09 05:05:33;;;;;;;20.73;16.70;;;18.40;99.90;;;;;;4981366;28;37592;-80
2022/07/09 05:07:59;;;;;;;23.08;17.48;;;18.50;99.90;;;;;;4987680;28;37925;-79
2022/07/09 05:10:26;;;;;;;19.73;11.27;;;18.60;99.90;;;;;;4967884;28;36986;-79
2022/07/09 05:12:52;;;;;;;14.05;8.82;;;18.60;99.90;;;;;;4964150;28;39368;-79
2022/07/09 05:15:18;;;;;;;17.83;8.55;;;18.70;99.90;;;;;;4963701;28;36746;-80
2022/07/09 05:17:44;;;;;;;12.80;6.85;;;18.80;99.90;;;;;;4981349;28;38535;-80
2022/07/09 05:20:11;;;;;;;8.45;5.95;;;18.90;99.90;;;;;;4960641;28;39378;-79
2022/07/09 05:22:38;;;;;;;10.20;6.20;;;18.90;99.90;;;;;;4981040;28;38044;-79
2022/07/09 05:25:05;;;;;;;9.13;6.13;;;19.10;99.90;;;;;;4960856;28;35281;-79
2022/07/09 05:27:31;;;;;;;9.75;6.82;;;19.20;99.90;;;;;;4988468;28;39223;-79
2022/07/09 05:29:58;;;;;;;11.85;6.38;;;19.20;99.90;;;;;;4994686;28;38878;-79
2022/07/09 05:32:24;;;;;;;14.20;6.38;;;19.30;99.90;;;;;;4996608;28;38603;-79
2022/07/09 05:34:50;;;;;;;7.95;4.80;;;19.30;99.90;;;;;;5000459;28;37096;-80
2022/07/09 05:37:16;;;;;;;8.30;4.95;;;19.50;99.90;;;;;;4981493;28;38609;-79
2022/07/09 05:39:42;;;;;;;8.95;4.50;;;19.60;99.90;;;;;;4984067;28;37558;-80
2022/07/09 05:42:09;;;;;;;9.48;5.65;;;19.60;99.90;;;;;;4986129;28;36877;-80
2022/07/09 05:44:37;;;;;;;8.52;5.05;;;19.70;99.90;;;;;;4990316;28;37978;-80
2022/07/09 05:47:04;;;;;;;8.50;5.22;;;19.60;99.90;;;;;;4983393;28;40833;-79
2022/07/09 05:49:30;;;;;;;8.73;4.57;;;19.60;99.90;;;;;;4999108;28;38650;-80
2022/07/09 05:51:56;;;;;;;7.40;5.07;;;19.70;99.90;;;;;;4981078;28;38473;-80
2022/07/09 05:54:22;;;;;;;8.10;4.82;;;19.70;99.90;;;;;;4981767;28;36151;-80
2022/07/09 05:56:48;;;;;;;7.70;4.68;;;19.90;99.90;;;;;;4980895;28;40024;-79
2022/07/09 05:59:15;;;;;;;11.52;4.78;;;20.10;99.90;;;;;;4996802;28;38603;-80
2022/07/09 06:01:42;;;;;;;12.88;4.88;;;20.30;99.90;;;;;;4984045;28;37810;-80
2022/07/09 06:04:09;;;;;;;10.48;4.13;;;20.00;99.90;;;;;;4979838;28;35867;-79
2022/07/09 06:06:35;;;;;;;7.47;4.57;;;19.90;99.90;;;;;;4982558;28;37429;-79
2022/07/09 06:09:01;;;;;;;10.98;5.85;;;19.60;99.90;;;;;;4983569;28;39609;-78
2022/07/09 06:11:28;;;;;;;11.82;6.20;;;19.50;99.90;;;;;;5004523;28;38762;-80
2022/07/09 06:13:54;;;;;;;10.73;5.88;;;19.40;99.90;;;;;;4985060;28;39000;-80
2022/07/09 06:16:20;;;;;;;11.27;7.00;;;19.40;99.90;;;;;;4986165;28;40245;-80
2022/07/09 06:18:46;;;;;;;14.85;7.43;;;19.40;99.90;;;;;;4988877;28;38788;-80
2022/07/09 06:21:12;;;;;;;10.10;5.90;;;19.30;99.90;;;;;;4982684;28;38407;-80
2022/07/09 06:23:38;;;;;;;8.02;5.22;;;19.30;99.90;;;;;;4980469;28;36275;-80
2022/07/09 06:26:05;;;;;;;13.80;7.22;;;19.30;99.90;;;;;;4991155;28;39300;-80
2022/07/09 06:28:31;;;;;;;18.35;8.60;;;19.30;99.90;;;;;;4998307;28;39604;-79
2022/07/09 06:30:57;;;;;;;11.68;6.93;;;19.30;99.90;;;;;;5002198;28;38956;-80
2022/07/09 06:33:23;;;;;;;15.93;8.32;;;19.40;99.90;;;;;;5004053;28;37657;-80
2022/07/09 06:35:49;;;;;;;8.82;6.60;;;19.70;99.90;;;;;;5003121;28;38878;-79
2022/07/09 06:38:15;;;;;;;9.15;5.93;;;20.00;99.90;;;;;;4996495;28;38301;-80
2022/07/09 06:40:41;;;;;;;9.15;4.50;;;20.50;99.90;;;;;;5006587;28;39307;-80
2022/07/09 06:43:09;;;;;;;7.93;4.10;;;20.90;99.90;;;;;;4986124;28;36052;-80
2022/07/09 06:45:36;;;;;;;7.70;3.28;;;21.10;99.90;;;;;;4991104;28;38915;-80
2022/07/09 06:48:02;;;;;;;8.93;3.55;;;21.40;99.90;;;;;;4982931;28;38984;-79
2022/07/09 06:50:29;;;;;;;3.95;2.65;;;21.30;99.90;;;;;;4994860;28;47211;-80
2022/07/09 06:52:55;;;;;;;2.50;2.30;;;21.10;99.90;;;;;;4988010;28;37276;-80
2022/07/09 06:55:22;;;;;;;4.38;2.63;;;21.00;99.90;;;;;;4997608;28;38540;-80
2022/07/09 06:57:48;;;;;;;5.55;2.20;;;21.20;99.90;;;;;;4995983;28;38234;-80
2022/07/09 07:00:14;;;;;;;3.97;2.20;;;21.10;99.90;;;;;;4988780;28;37802;-80
2022/07/09 07:02:40;;;;;;;3.75;1.92;;;21.00;99.90;;;;;;5006931;28;37371;-79
2022/07/09 07:05:07;;;;;;;3.60;2.13;;;20.90;99.90;;;;;;4995568;28;37730;-78
2022/07/09 07:07:33;;;;;;;2.28;1.50;;;20.70;99.90;;;;;;4995753;28;37350;-79
2022/07/09 07:09:59;;;;;;;3.45;1.70;;;20.60;99.90;;;;;;5003624;28;37197;-80
2022/07/09 07:12:26;;;;;;;2.60;1.58;;;20.50;99.90;;;;;;5003795;28;37573;-80
2022/07/09 07:14:52;;;;;;;5.18;1.75;;;20.50;99.90;;;;;;5005608;28;38990;-80
2022/07/09 07:17:19;;;;;;;4.32;1.48;;;20.60;99.90;;;;;;4995685;28;37334;-79
2022/07/09 07:19:45;;;;;;;3.08;1.35;;;20.80;99.90;;;;;;5010985;28;37948;-80
2022/07/09 07:22:11;;;;;;;1.23;0.90;;;20.70;99.90;;;;;;4990843;28;36108;-80
2022/07/09 07:24:39;;;;;;;0.80;0.77;;;20.70;99.90;;;;;;5000156;28;38702;-79
2022/07/09 07:27:05;;;;;;;3.10;0.95;;;20.60;99.90;;;;;;5008745;28;39338;-80
2022/07/09 07:29:31;;;;;;;3.75;1.08;;;20.70;99.90;;;;;;4996501;28;36677;-80
2022/07/09 07:31:58;;;;;;;2.65;0.75;;;20.80;99.90;;;;;;4994872;28;37318;-80
2022/07/09 07:34:24;;;;;;;4.40;0.80;;;20.90;99.90;;;;;;4991072;28;38704;-80
2022/07/09 07:36:51;;;;;;;1.55;0.80;;;20.80;99.90;;;;;;4995694;28;39848;-80
2022/07/09 07:39:18;;;;;;;2.53;0.80;;;20.80;99.90;;;;;;5010808;28;38595;-80
2022/07/09 07:41:45;;;;;;;2.92;1.20;;;20.80;99.90;;;;;;5001381;28;36384;-80
2022/07/09 07:44:11;;;;;;;2.38;0.98;;;20.80;99.90;;;;;;4995587;28;37461;-79
2022/07/09 07:46:37;;;;;;;2.80;1.10;;;20.80;99.90;;;;;;4994176;28;37989;-80
2022/07/09 07:49:03;;;;;;;2.92;0.90;;;20.60;99.90;;;;;;4997475;28;37940;-79
2022/07/09 07:51:29;;;;;;;4.82;1.15;;;20.70;99.90;;;;;;4997393;28;39376;-80
2022/07/09 07:53:59;;;;;;;4.60;1.00;;;20.90;99.90;;;;;;5016468;28;39636;-79
2022/07/09 07:56:25;;;;;;;2.22;0.75;;;20.90;99.90;;;;;;5014623;28;40049;-79
2022/07/09 07:58:51;;;;;;;1.55;0.90;;;20.80;99.90;;;;;;4994619;28;37857;-79
2022/07/09 08:01:17;;;;;;;2.95;0.80;;;20.80;99.90;;;;;;4996650;28;36382;-79
2022/07/09 08:03:43;;;;;;;1.60;0.70;;;20.60;99.90;;;;;;4995786;28;37452;-80
2022/07/09 08:06:09;;;;;;;2.40;1.08;;;20.70;99.90;;;;;;5011371;28;40006;-80
2022/07/09 08:08:38;;;;;;;2.97;0.73;;;20.70;99.90;;;;;;4994837;28;38291;-80
2022/07/09 08:11:04;;;;;;;2.63;0.93;;;20.60;99.90;;;;;;4999110;28;36851;-79
2022/07/09 08:13:31;;;;;;;2.22;0.82;;;20.70;99.90;;;;;;4995354;28;37797;-80
2022/07/09 08:15:57;;;;;;;2.38;0.70;;;20.70;99.90;;;;;;4995953;28;38470;-80
2022/07/09 08:18:23;;;;;;;5.07;0.82;;;20.70;99.90;;;;;;5003765;28;39513;-79
2022/07/09 08:20:51;;;;;;;2.83;0.90;;;20.60;99.90;;;;;;5012606;28;39542;-80
2022/07/09 08:23:17;;;;;;;3.42;0.95;;;21.00;99.90;;;;;;5016395;28;38935;-80
2022/07/09 08:25:44;;;;;;;2.67;0.82;;;21.30;99.90;;;;;;5016906;28;39557;-80
2022/07/09 08:28:10;;;;;;;1.25;0.70;;;21.50;99.90;;;;;;5003721;28;37140;-80
2022/07/09 08:30:37;;;;;;;2.05;0.77;;;21.70;99.90;;;;;;4989946;28;37362;-81
2022/07/09 08:33:03;;;;;;;2.88;0.80;;;21.70;99.90;;;;;;4991256;28;40158;-80
2022/07/09 08:35:29;;;;;;;2.03;0.90;;;21.60;99.90;;;;;;5005166;28;39963;-81
2022/07/09 08:37:56;;;;;;;2.08;0.70;;;21.70;99.90;;;;;;4994174;28;38131;-81
2022/07/09 08:40:23;;;;;;;3.05;0.80;;;21.90;99.90;;;;;;4987935;28;36191;-81
2022/07/09 08:42:49;;;;;;;2.58;1.13;;;22.10;99.90;;;;;;4992700;28;39098;-81
2022/07/09 08:45:17;;;;;;;4.72;0.70;;;22.20;99.90;;;;;;5007093;28;39693;-81
2022/07/09 08:47:45;;;;;;;2.70;0.82;;;22.20;99.90;;;;;;4990453;28;39161;-81
2022/07/09 08:50:12;;;;;;;0.70;0.60;;;22.00;99.90;;;;;;4996373;28;36534;-80
2022/07/09 08:52:40;;;;;;;2.30;0.68;;;21.80;99.90;;;;;;5000995;28;38958;-79
2022/07/09 08:55:08;;;;;;;1.83;0.68;;;21.50;99.90;;;;;;4985606;28;37131;-79
2022/07/09 08:57:37;;;;;;;2.20;0.60;;;21.50;99.90;;;;;;4989296;28;36878;-80
2022/07/09 09:00:05;;;;;;;2.13;0.85;;;21.70;99.90;;;;;;4995682;28;36764;-80
2022/07/09 09:02:38;;;;;;;1.02;0.57;;;22.00;99.90;;;;;;4992436;28;48472;-80
2022/07/09 09:05:13;;;;;;;2.53;0.77;;;22.20;99.90;;;;;;4996244;28;37536;-80
2022/07/09 09:07:39;;;;;;;3.33;0.77;;;22.50;99.90;;;;;;4998008;28;38098;-80
2022/07/09 09:10:06;;;;;;;4.55;0.85;;;22.60;99.90;;;;;;5020339;28;37066;-80
2022/07/09 09:12:33;;;;;;;1.90;0.80;;;22.50;99.90;;;;;;4993564;28;37787;-81
2022/07/09 09:15:06;;;;;;;3.03;0.90;;;22.70;99.90;;;;;;4989744;28;37640;-81
2022/07/09 09:17:33;;;;;;;1.63;0.57;;;22.70;99.90;;;;;;4997045;28;48856;-80
2022/07/09 09:20:14;;;;;;;2.35;0.77;;;22.80;99.90;;;;;;5013305;28;36602;-81
2022/07/09 09:22:59;;;;;;;2.83;0.40;;;22.80;99.90;;;;;;4979606;28;48287;-81
2022/07/09 09:25:30;;;;;;;1.63;0.50;;;22.40;99.90;;;;;;5012228;28;39605;-79
2022/07/09 09:27:59;;;;;;;0.93;0.73;;;22.10;99.90;;;;;;5017872;28;39036;-80
2022/07/09 09:30:31;;;;;;;1.92;0.50;;;21.70;99.90;;;;;;5013766;28;37365;-80
2022/07/09 09:33:02;;;;;;;2.58;0.50;;;22.00;99.90;;;;;;5015909;28;40090;-79
2022/07/09 09:35:34;;;;;;;3.88;0.70;;;22.50;99.90;;;;;;4996224;28;48618;-80
2022/07/09 09:38:01;;;;;;;;;;;22.40;99.90;;;;;;5015763;28;39647;-80
2022/07/09 09:40:27;;;;;;;1.40;0.47;;;22.10;99.90;;;;;;5016113;28;49343;-80
2022/07/09 09:42:54;;;;;;;1.15;0.25;;;22.20;99.90;;;;;;4995535;28;39317;-80
2022/07/09 09:45:21;;;;;;;1.08;0.40;;;22.10;99.90;;;;;;4997679;28;40823;-81
2022/07/09 09:47:49;;;;;;;1.02;0.50;;;22.20;99.90;;;;;;4999518;28;37427;-81
2022/07/09 09:50:20;;;;;;;2.78;0.52;;;22.20;99.90;;;;;;5013083;28;38381;-78
2022/07/09 09:52:48;;;;;;;0.57;0.50;;;22.10;99.90;;;;;;5010761;28;40278;-78
2022/07/09 09:55:16;;;;;;;3.38;0.45;;;22.10;99.90;;;;;;4991299;28;37000;-79
2022/07/09 09:57:42;;;;;;;2.75;0.55;;;22.10;99.90;;;;;;4989857;28;38011;-80
2022/07/09 10:00:10;;;;;;;1.35;0.52;;;22.30;99.90;;;;;;5002739;28;36915;-79
2022/07/09 10:02:42;;;;;;;1.92;0.60;;;22.30;99.90;;;;;;4990930;28;37534;-80
2022/07/09 10:05:08;;;;;;;0.82;0.50;;;22.70;99.90;;;;;;4993882;28;37637;-79
2022/07/09 10:07:34;;;;;;;0.93;0.60;;;22.70;99.90;;;;;;5015311;28;38767;-80
2022/07/09 10:10:01;;;;;;;2.10;0.55;;;22.30;99.90;;;;;;4989660;28;37866;-78
2022/07/09 10:12:41;;;;;;;3.20;0.50;;;22.10;99.90;;;;;;5007805;28;39376;-80
2022/07/09 10:15:26;;;;;;;2.58;2.10;;;21.90;99.90;;;;;;4978678;28;37163;-79
2022/07/09 10:17:53;;;;;;;1.90;0.50;;;21.80;99.90;;;;;;4999366;28;37794;-78
2022/07/09 10:20:31;;;;;;;0.98;0.60;;;21.80;99.90;;;;;;5003224;28;36144;-79
2022/07/09 10:22:58;;;;;;;2.35;0.50;;;21.80;99.90;;;;;;4980259;28;38767;-78
2022/07/09 10:25:29;;;;;;;2.25;0.70;;;21.60;99.90;;;;;;4984771;28;38155;-79
2022/07/09 10:27:55;;;;;;;2.70;0.52;;;21.40;99.90;;;;;;4994287;28;38317;-79
2022/07/09 10:30:26;;;;;;;3.92;0.50;;;21.60;99.90;;;;;;4968974;28;37369;-80
2022/07/09 10:33:08;;;;;;;1.25;0.52;;;22.00;99.90;;;;;;4977724;28;39140;-80
2022/07/09 10:35:47;;;;;;;1.92;0.40;;;21.90;99.90;;;;;;4979568;28;48320;-79
2022/07/09 10:38:39;;;;;;;0.43;0.30;;;21.90;99.90;;;;;;5032437;23;38709;-80
2022/07/09 10:41:23;;;;;;;2.42;0.50;;;22.00;99.90;;;;;;4980476;28;37310;-78
2022/07/09 10:43:53;;;;;;;3.22;0.70;;;22.10;99.90;;;;;;4980599;28;40720;-79
2022/07/09 10:46:19;;;;;;;3.10;0.60;;;21.80;99.90;;;;;;4976932;28;38435;-79
2022/07/09 10:48:46;;;;;;;2.05;0.65;;;21.60;99.90;;;;;;4969009;28;36719;-79
2022/07/09 10:51:20;;;;;;;3.25;0.50;;;21.70;99.90;;;;;;4994848;28;37445;-79
2022/07/09 10:53:47;;;;;;;4.97;0.70;;;21.50;99.90;;;;;;5013114;28;39911;-80
2022/07/09 10:56:20;;;;;;;2.63;0.70;;;21.50;99.90;;;;;;4996214;28;38746;-79
2022/07/09 10:58:50;;;;;;;3.72;0.80;;;21.40;99.90;;;;;;4979432;28;37719;-80
2022/07/09 11:01:24;;;;;;;1.60;0.77;;;21.20;99.90;;;;;;4979747;28;37452;-80
2022/07/09 11:03:51;;;;;;;1.73;0.63;;;21.20;99.90;;;;;;4991664;28;38546;-79
2022/07/09 11:06:23;;;;;;;2.70;0.52;;;21.30;99.90;;;;;;4992418;28;38601;-78
2022/07/09 11:08:49;;;;;;;2.25;0.70;;;21.50;99.90;;;;;;4991297;28;37079;-80
2022/07/09 11:11:24;;;;;;;2.50;0.60;;;21.90;99.90;;;;;;5006465;28;38202;-80
2022/07/09 11:13:57;;;;;;;3.15;0.80;;;21.70;99.90;;;;;;4993386;28;40014;-80
2022/07/09 11:16:24;;;;;;;3.78;0.98;;;21.60;99.90;;;;;;4997926;28;38500;-79
2022/07/09 11:19:19;;;;;;;6.68;0.85;;;21.00;99.90;;;;;;5009585;28;38981;-80
2022/07/09 11:21:46;;;;;;;5.90;1.10;;;21.00;99.90;;;;;;4977087;28;48463;-80
2022/07/09 11:24:22;;;;;;;4.13;1.00;;;21.00;99.90;;;;;;4995814;28;39926;-79
2022/07/09 11:26:48;;;;;;;1.70;0.90;;;21.10;99.90;;;;;;4978339;28;38631;-80
2022/07/09 11:29:21;;;;;;;3.10;0.80;;;21.10;99.90;;;;;;4976585;28;39468;-79
2022/07/09 11:31:51;;;;;;;6.38;1.30;;;21.40;99.90;;;;;;4991411;28;37642;-79
2022/07/09 11:34:20;;;;;;;3.00;0.88;;;21.40;99.90;;;;;;4974198;28;41917;-79
2022/07/09 11:36:50;;;;;;;3.22;0.90;;;21.60;99.90;;;;;;4996373;28;39787;-79
2022/07/09 11:39:31;;;;;;;5.93;1.58;;;21.90;99.90;;;;;;4990883;28;39439;-79
2022/07/09 11:42:00;;;;;;;4.53;1.10;;;21.90;99.90;;;;;;4972219;28;37369;-79
2022/07/09 11:44:33;;;;;;;3.80;1.00;;;22.00;99.90;;;;;;4999148;28;37402;-78
2022/07/09 11:47:06;;;;;;;5.32;1.20;;;21.70;99.90;;;;;;4994297;28;37454;-80
2022/07/09 11:49:40;;;;;;;4.50;0.82;;;21.70;99.90;;;;;;4981483;28;47068;-79
2022/07/09 11:52:24;;;;;;;5.18;1.45;;;22.10;99.90;;;;;;4998139;28;38640;-79
2022/07/09 11:55:05;;;;;;;4.32;1.08;;;22.40;99.90;;;;;;4987364;28;38682;-79
2022/07/09 11:57:34;;;;;;;2.80;1.10;;;22.20;99.90;;;;;;5014993;28;49263;-80
2022/07/09 12:00:22;;;;;;;4.93;0.90;;;22.40;99.90;;;;;;4999885;28;39001;-79
2022/07/09 12:08:30;;;;;;;4.78;1.08;;;22.10;99.90;;;;;;5079750;27;20355;-80
2022/07/09 12:10:57;;;;;;;4.35;0.98;;;21.60;99.90;;;;;;5078705;27;38285;-78
2022/07/09 12:13:23;;;;;;;3.40;0.82;;;21.10;99.90;;;;;;5070614;27;37046;-78
2022/07/09 12:15:49;;;;;;;1.70;0.77;;;21.20;99.90;;;;;;5063428;27;39856;-78
2022/07/09 12:18:15;;;;;;;3.90;0.85;;;21.70;99.90;;;;;;5082735;27;40771;-81
2022/07/09 12:20:42;;;;;;;5.28;1.50;;;22.20;99.90;;;;;;5074877;28;38373;-80
2022/07/09 12:23:08;;;;;;;4.20;1.13;;;22.10;99.90;;;;;;5079010;27;37398;-78
2022/07/09 12:25:34;;;;;;;6.20;1.60;;;21.80;99.90;;;;;;5075511;27;39285;-82
2022/07/09 12:28:00;;;;;;;3.97;1.40;;;22.00;99.90;;;;;;5071116;27;38181;-79
2022/07/09 12:30:29;;;;;;;5.50;1.38;;;21.90;99.90;;;;;;5100725;27;49083;-79
2022/07/09 12:32:58;;;;;;;8.15;1.55;;;21.80;99.90;;;;;;5069862;27;38146;-78
2022/07/09 12:35:25;;;;;;;6.38;1.48;;;22.20;99.90;;;;;;5064604;28;39397;-77
2022/07/09 12:37:51;;;;;;;6.40;1.25;;;22.00;99.90;;;;;;5113785;27;38903;-79
2022/07/09 12:40:18;;;;;;;5.25;1.35;;;21.90;99.90;;;;;;5071574;28;38161;-78
2022/07/09 12:42:44;;;;;;;5.13;1.55;;;22.40;99.90;;;;;;5103096;27;37865;-77
2022/07/09 12:45:12;;;;;;;10.50;1.83;;;22.10;99.90;;;;;;5063605;27;37815;-81
2022/07/09 12:47:39;;;;;;;7.63;1.88;;;21.70;99.90;;;;;;5069222;27;39301;-85
2022/07/09 12:50:06;;;;;;;10.27;1.90;;;21.10;99.90;;;;;;5069405;27;38936;-81